createdAt,value
2019-06-26T00:04:51.757Z,21.80
2019-06-26T00:09:56.734Z,22.10
2019-06-26T00:15:01.747Z,20.17
2019-06-26T00:20:07.719Z,19.97
2019-06-26T00:25:12.715Z,19.47
2019-06-26T00:30:18.074Z,18.57
2019-06-26T00:35:23.112Z,19.10
2019-06-26T00:40:28.102Z,19.80
2019-06-26T00:45:33.135Z,21.53
2019-06-26T00:50:38.178Z,37.30
2019-06-26T00:55:43.207Z,27.93
2019-06-26T01:00:52.043Z,23.23
2019-06-26T01:05:57.231Z,21.77
2019-06-26T01:11:02.245Z,20.10
2019-06-26T01:16:08.282Z,19.13
2019-06-26T01:21:13.246Z,21.50
2019-06-26T01:26:18.215Z,20.20
2019-06-26T01:31:23.266Z,22.80
2019-06-26T01:36:28.633Z,20.90
2019-06-26T01:41:33.684Z,21.63
2019-06-26T01:46:38.733Z,22.23
2019-06-26T01:51:43.702Z,21.77
2019-06-26T01:56:48.662Z,22.50
2019-06-26T02:01:53.944Z,21.23
2019-06-26T02:06:59.036Z,22.27
2019-06-26T02:12:03.981Z,21.73
2019-06-26T02:17:08.954Z,22.83
2019-06-26T02:22:14.005Z,23.00
2019-06-26T02:27:18.983Z,21.23
2019-06-26T02:32:24.039Z,21.43
2019-06-26T02:37:29.005Z,19.77
2019-06-26T02:42:34.046Z,19.73
2019-06-26T02:47:40.023Z,19.93
2019-06-26T02:52:45.011Z,19.17
2019-06-26T02:57:49.996Z,20.17
2019-06-26T03:02:55.198Z,19.70
2019-06-26T03:08:00.178Z,19.27
2019-06-26T03:13:05.530Z,18.73
2019-06-26T03:18:10.496Z,19.30
2019-06-26T03:23:15.474Z,18.93
2019-06-26T03:28:20.464Z,21.70
2019-06-26T03:33:25.429Z,23.03
2019-06-26T03:38:30.461Z,21.60
2019-06-26T03:43:35.833Z,22.43
2019-06-26T03:48:40.883Z,24.40
2019-06-26T03:53:45.844Z,23.57
2019-06-26T03:58:50.832Z,21.20
2019-06-26T04:03:57.692Z,22.77
2019-06-26T04:09:02.746Z,22.00
2019-06-26T04:14:09.318Z,22.30
2019-06-26T04:19:14.437Z,36.30
2019-06-26T04:24:19.476Z,32.83
2019-06-26T04:29:24.451Z,20.70
2019-06-26T04:34:29.430Z,17.37
2019-06-26T04:39:34.893Z,17.17
2019-06-26T04:44:39.940Z,17.23
2019-06-26T04:49:44.922Z,15.97
2019-06-26T04:54:49.920Z,15.25
2019-06-26T04:59:54.906Z,15.98
2019-06-26T05:05:01.237Z,17.50
2019-06-26T05:10:08.102Z,14.23
2019-06-26T05:15:13.088Z,14.38
2019-06-26T05:20:18.146Z,14.23
2019-06-26T05:25:23.188Z,13.50
2019-06-26T05:30:28.232Z,14.10
2019-06-26T05:35:35.203Z,14.98
2019-06-26T05:40:39.881Z,13.45
2019-06-26T05:45:45.179Z,12.75
2019-06-26T05:50:50.152Z,12.98
2019-06-26T05:55:55.132Z,13.58
2019-06-26T06:01:00.176Z,13.28
2019-06-26T06:06:05.334Z,11.97
2019-06-26T06:11:10.321Z,12.73
2019-06-26T06:16:15.303Z,12.78
2019-06-26T06:21:20.265Z,12.85
2019-06-26T06:26:25.303Z,16.23
2019-06-26T06:31:30.288Z,12.50
2019-06-26T06:36:35.353Z,12.73
2019-06-26T06:41:43.217Z,12.98
2019-06-26T06:46:59.609Z,13.20
2019-06-26T06:51:53.539Z,17.35
2019-06-26T06:56:58.541Z,25.55
2019-06-26T07:02:04.504Z,13.93
2019-06-26T07:07:09.725Z,14.07
2019-06-26T07:12:14.757Z,12.75
2019-06-26T07:17:21.237Z,14.73
2019-06-26T07:22:27.685Z,12.98
2019-06-26T07:27:32.667Z,12.28
2019-06-26T07:32:37.686Z,11.78
2019-06-26T07:37:42.741Z,12.65
2019-06-26T07:42:48.118Z,11.50
2019-06-26T07:47:53.158Z,13.60
2019-06-26T07:52:58.132Z,11.50
2019-06-26T07:58:03.201Z,12.90
2019-06-26T08:03:08.187Z,11.57
2019-06-26T08:08:14.798Z,11.70
2019-06-26T08:13:19.978Z,10.63
2019-06-26T08:18:24.951Z,10.40
2019-06-26T08:23:29.945Z,9.00
2019-06-26T08:28:34.928Z,9.60
2019-06-26T08:33:39.884Z,7.80
2019-06-26T08:38:44.870Z,9.73
2019-06-26T08:43:49.826Z,8.30
2019-06-26T08:48:54.815Z,8.30
2019-06-26T08:53:59.859Z,7.22
2019-06-26T08:59:04.925Z,7.50
2019-06-26T09:04:09.961Z,6.55
2019-06-26T09:09:15.176Z,7.47
2019-06-26T09:14:20.136Z,9.08
2019-06-26T09:19:25.094Z,6.72
2019-06-26T09:24:30.152Z,6.75
2019-06-26T09:29:35.182Z,7.17
2019-06-26T09:34:40.199Z,6.78
2019-06-26T09:39:45.245Z,7.50
2019-06-26T09:44:50.294Z,6.72
2019-06-26T09:49:55.341Z,8.65
2019-06-26T09:55:00.309Z,7.28
2019-06-26T10:00:08.661Z,8.33
2019-06-26T10:05:13.854Z,8.00
2019-06-26T10:10:19.290Z,8.00
2019-06-26T10:15:24.249Z,8.25
2019-06-26T10:20:29.442Z,8.60
2019-06-26T10:25:34.473Z,13.43
2019-06-26T10:30:39.608Z,9.20
2019-06-26T10:35:44.608Z,9.05
2019-06-26T10:40:49.588Z,8.23
2019-06-26T10:45:54.886Z,8.53
2019-06-26T10:50:59.876Z,11.08
2019-06-26T10:56:04.852Z,13.58
2019-06-26T11:01:09.881Z,8.93
2019-06-26T11:06:14.982Z,12.53
2019-06-26T11:11:20.178Z,11.05
2019-06-26T11:16:25.166Z,8.80
2019-06-26T11:21:30.269Z,7.40
2019-06-26T11:26:35.248Z,7.62
2019-06-26T11:31:40.295Z,7.72
2019-06-26T11:36:59.465Z,7.30
2019-06-26T11:41:51.870Z,7.10
2019-06-26T11:46:56.889Z,6.80
2019-06-26T11:52:01.884Z,6.78
2019-06-26T11:57:10.746Z,10.00
2019-06-26T12:02:16.209Z,7.08
2019-06-26T12:07:21.185Z,6.85
2019-06-26T12:12:26.462Z,7.90
2019-06-26T12:17:31.503Z,8.30
2019-06-26T12:22:36.475Z,7.53
2019-06-26T12:27:41.598Z,7.55
2019-06-26T12:33:01.606Z,7.65
2019-06-26T12:37:53.161Z,7.83
2019-06-26T12:42:58.200Z,7.92
2019-06-26T12:48:03.152Z,6.67
2019-06-26T12:53:09.885Z,6.95
2019-06-26T12:58:19.464Z,6.55
2019-06-26T13:03:21.467Z,7.00
2019-06-26T13:08:26.456Z,8.10
2019-06-26T13:13:32.733Z,8.03
2019-06-26T13:18:37.694Z,6.87
2019-06-26T13:23:42.745Z,10.10
2019-06-26T13:28:47.705Z,6.53
2019-06-26T13:33:52.758Z,6.60
2019-06-26T13:38:59.374Z,8.65
2019-06-26T13:44:04.353Z,5.85
2019-06-26T13:49:09.646Z,9.10
2019-06-26T13:54:14.891Z,5.75
2019-06-26T13:59:19.869Z,6.10
2019-06-26T14:04:24.897Z,5.03
2019-06-26T14:09:29.869Z,5.00
2019-06-26T14:14:52.793Z,8.60
2019-06-26T14:19:41.995Z,6.30
2019-06-26T14:24:47.642Z,7.70
2019-06-26T14:29:52.689Z,9.70
2019-06-26T14:34:57.674Z,11.30
2019-06-26T14:40:02.681Z,6.92
2019-06-26T14:45:10.684Z,7.62
2019-06-26T14:50:16.034Z,6.72
2019-06-26T14:55:21.001Z,9.80
2019-06-26T15:00:26.059Z,7.10
2019-06-26T15:05:31.129Z,11.33
2019-06-26T15:10:36.117Z,10.78
2019-06-26T15:15:41.323Z,11.30
2019-06-26T15:20:46.310Z,7.20
2019-06-26T15:25:51.284Z,7.22
2019-06-26T15:30:56.269Z,7.28
2019-06-26T15:36:01.342Z,7.60
2019-06-26T15:41:06.292Z,7.45
2019-06-26T15:46:11.314Z,7.58
2019-06-26T15:51:16.356Z,7.70
2019-06-26T15:56:22.237Z,7.62
2019-06-26T16:01:27.427Z,7.17
2019-06-26T16:06:32.472Z,7.20
2019-06-26T16:11:37.522Z,7.50
2019-06-26T16:16:44.236Z,9.48
2019-06-26T16:21:49.401Z,6.80
2019-06-26T16:26:54.519Z,8.40
2019-06-26T16:31:59.671Z,7.75
2019-06-26T16:37:04.640Z,8.00
2019-06-26T16:42:09.595Z,7.20
2019-06-26T16:47:14.597Z,7.42
2019-06-26T16:52:20.009Z,7.42
2019-06-26T16:57:25.972Z,8.93
2019-06-26T17:02:30.998Z,7.92
2019-06-26T17:07:35.983Z,15.60
2019-06-26T17:12:41.097Z,8.15
2019-06-26T17:17:46.312Z,7.90
2019-06-26T17:23:04.588Z,9.65
2019-06-26T17:27:57.972Z,7.67
2019-06-26T17:33:02.928Z,8.15
2019-06-26T17:38:07.981Z,7.97
2019-06-26T17:43:13.120Z,8.58
2019-06-26T17:48:18.367Z,8.73
2019-06-26T17:53:23.425Z,7.90
2019-06-26T17:58:28.403Z,8.58
2019-06-26T18:03:33.449Z,8.03
2019-06-26T18:08:38.559Z,11.97
2019-06-26T18:13:43.521Z,10.63
2019-06-26T18:18:48.827Z,12.63
2019-06-26T18:23:53.814Z,9.38
2019-06-26T18:29:01.965Z,11.83
2019-06-26T18:34:08.015Z,11.80
2019-06-26T18:39:12.971Z,9.60
2019-06-26T18:44:18.086Z,11.03
2019-06-26T18:49:23.193Z,14.85
2019-06-26T18:54:28.233Z,12.25
2019-06-26T18:59:33.223Z,13.55
2019-06-26T19:04:38.209Z,19.87
2019-06-26T19:09:43.194Z,18.15
2019-06-26T19:14:48.181Z,16.00
2019-06-26T19:19:53.265Z,14.00
2019-06-26T19:24:58.277Z,16.17
2019-06-26T19:30:04.782Z,12.35
2019-06-26T19:35:19.126Z,10.60
2019-06-26T19:40:17.515Z,11.80
2019-06-26T19:45:23.246Z,10.68
2019-06-26T19:50:28.233Z,10.80
2019-06-26T19:55:33.275Z,9.60
2019-06-26T20:00:38.241Z,9.88
2019-06-26T20:05:43.220Z,11.28
2019-06-26T20:10:48.171Z,9.55
2019-06-26T20:15:53.306Z,10.40
2019-06-26T20:20:58.691Z,10.25
2019-06-26T20:26:03.724Z,10.65
2019-06-26T20:31:12.424Z,10.78
2019-06-26T20:36:17.550Z,10.00
2019-06-26T20:41:22.580Z,10.45
2019-06-26T20:46:27.617Z,10.20
2019-06-26T20:51:33.600Z,10.00
2019-06-26T20:56:38.586Z,10.43
2019-06-26T21:01:43.733Z,11.88
2019-06-26T21:06:48.997Z,11.65
2019-06-26T21:11:54.063Z,11.93
2019-06-26T21:16:59.197Z,15.60
2019-06-26T21:22:04.466Z,11.35
2019-06-26T21:27:09.664Z,12.55
2019-06-26T21:32:14.981Z,11.73
2019-06-26T21:37:20.024Z,10.35
2019-06-26T21:42:25.169Z,11.05
2019-06-26T21:47:30.289Z,8.30
2019-06-26T21:52:35.353Z,9.80
2019-06-26T21:57:40.462Z,10.00
2019-06-26T22:03:04.241Z,8.18
2019-06-26T22:08:10.739Z,8.20
2019-06-26T22:13:17.428Z,8.35
2019-06-26T22:18:22.506Z,7.65
2019-06-26T22:23:27.834Z,8.10
2019-06-26T22:28:34.182Z,7.92
2019-06-26T22:33:39.309Z,8.60
2019-06-26T22:38:44.437Z,8.20
2019-06-26T22:43:49.402Z,7.53
2019-06-26T22:48:55.458Z,7.83
2019-06-26T22:54:00.631Z,7.77
2019-06-26T22:59:05.904Z,7.27
2019-06-26T23:04:11.044Z,7.80
2019-06-26T23:09:16.079Z,7.97
2019-06-26T23:14:21.215Z,7.80
2019-06-26T23:19:26.329Z,7.27
2019-06-26T23:24:31.830Z,6.40
2019-06-26T23:29:37.030Z,5.10
2019-06-26T23:34:42.366Z,4.87
2019-06-26T23:39:47.475Z,4.90
2019-06-26T23:44:52.523Z,4.90
2019-06-26T23:49:57.640Z,4.40
2019-06-26T23:55:02.709Z,4.10
